sensor_id;sensor_type;location;lat;lon;timestamp;P1;durP1;ratioP1;P2;durP2;ratioP2
65581;SDS011;52231;40.090;18.348;2023-07-02T00:03:38;23.35;;;12.32;;
65581;SDS011;52231;40.090;18.348;2023-07-02T00:06:07;25.13;;;12.30;;
65581;SDS011;52231;40.090;18.348;2023-07-02T00:08:35;22.90;;;11.57;;
65581;SDS011;52231;40.090;18.348;2023-07-02T00:11:03;21.70;;;12.05;;
65581;SDS011;52231;40.090;18.348;2023-07-02T00:15:59;21.05;;;12.13;;
65581;SDS011;52231;40.090;18.348;2023-07-02T00:21:02;21.10;;;12.30;;
65581;SDS011;52231;40.090;18.348;2023-07-02T00:23:31;26.20;;;11.40;;
65581;SDS011;52231;40.090;18.348;2023-07-02T00:28:27;19.10;;;11.60;;
65581;SDS011;52231;40.090;18.348;2023-07-02T00:30:55;22.73;;;11.45;;
65581;SDS011;52231;40.090;18.348;2023-07-02T00:35:51;21.27;;;10.52;;
65581;SDS011;52231;40.090;18.348;2023-07-02T00:38:19;25.73;;;12.35;;
65581;SDS011;52231;40.090;18.348;2023-07-02T00:40:48;20.05;;;11.70;;
65581;SDS011;52231;40.090;18.348;2023-07-02T00:43:17;21.85;;;12.77;;
65581;SDS011;52231;40.090;18.348;2023-07-02T00:45:45;21.33;;;10.40;;
65581;SDS011;52231;40.090;18.348;2023-07-02T00:48:14;24.60;;;11.98;;
65581;SDS011;52231;40.090;18.348;2023-07-02T00:50:42;22.60;;;11.50;;
65581;SDS011;52231;40.090;18.348;2023-07-02T00:53:10;25.45;;;11.18;;
65581;SDS011;52231;40.090;18.348;2023-07-02T00:55:39;21.65;;;12.20;;
65581;SDS011;52231;40.090;18.348;2023-07-02T01:00:38;20.23;;;11.15;;
65581;SDS011;52231;40.090;18.348;2023-07-02T01:03:07;20.85;;;12.43;;
65581;SDS011;52231;40.090;18.348;2023-07-02T01:05:35;22.33;;;11.75;;
65581;SDS011;52231;40.090;18.348;2023-07-02T01:10:33;25.73;;;12.20;;
65581;SDS011;52231;40.090;18.348;2023-07-02T01:13:08;21.52;;;12.65;;
65581;SDS011;52231;40.090;18.348;2023-07-02T01:15:42;23.75;;;13.57;;
65581;SDS011;52231;40.090;18.348;2023-07-02T01:18:13;23.35;;;13.05;;
65581;SDS011;52231;40.090;18.348;2023-07-02T01:20:43;24.10;;;13.80;;
65581;SDS011;52231;40.090;18.348;2023-07-02T01:23:11;24.50;;;12.82;;
65581;SDS011;52231;40.090;18.348;2023-07-02T01:25:40;23.33;;;13.05;;
65581;SDS011;52231;40.090;18.348;2023-07-02T01:30:38;24.05;;;11.35;;
65581;SDS011;52231;40.090;18.348;2023-07-02T01:33:07;23.52;;;12.10;;
65581;SDS011;52231;40.090;18.348;2023-07-02T01:38:03;22.08;;;11.82;;
65581;SDS011;52231;40.090;18.348;2023-07-02T01:40:31;24.20;;;12.45;;
65581;SDS011;52231;40.090;18.348;2023-07-02T01:45:27;23.83;;;12.60;;
65581;SDS011;52231;40.090;18.348;2023-07-02T01:47:56;25.27;;;11.38;;
65581;SDS011;52231;40.090;18.348;2023-07-02T01:50:24;25.38;;;12.35;;
65581;SDS011;52231;40.090;18.348;2023-07-02T01:52:59;21.60;;;11.85;;
65581;SDS011;52231;40.090;18.348;2023-07-02T01:55:27;27.15;;;13.23;;
65581;SDS011;52231;40.090;18.348;2023-07-02T01:57:55;21.77;;;11.45;;
65581;SDS011;52231;40.090;18.348;2023-07-02T02:00:23;26.88;;;12.07;;
65581;SDS011;52231;40.090;18.348;2023-07-02T02:02:52;24.52;;;11.98;;
65581;SDS011;52231;40.090;18.348;2023-07-02T02:05:20;22.67;;;12.43;;
65581;SDS011;52231;40.090;18.348;2023-07-02T02:07:50;24.05;;;11.75;;
65581;SDS011;52231;40.090;18.348;2023-07-02T02:12:46;27.45;;;12.30;;
65581;SDS011;52231;40.090;18.348;2023-07-02T02:15:14;27.20;;;12.38;;
65581;SDS011;52231;40.090;18.348;2023-07-02T02:17:43;23.52;;;12.10;;
65581;SDS011;52231;40.090;18.348;2023-07-02T02:20:12;24.65;;;13.38;;
65581;SDS011;52231;40.090;18.348;2023-07-02T02:22:40;25.35;;;12.65;;
65581;SDS011;52231;40.090;18.348;2023-07-02T02:27:37;25.67;;;13.45;;
65581;SDS011;52231;40.090;18.348;2023-07-02T02:32:35;29.50;;;13.20;;
65581;SDS011;52231;40.090;18.348;2023-07-02T02:35:07;24.67;;;12.70;;
65581;SDS011;52231;40.090;18.348;2023-07-02T02:37:37;27.60;;;14.15;;
65581;SDS011;52231;40.090;18.348;2023-07-02T02:40:08;24.75;;;12.77;;
65581;SDS011;52231;40.090;18.348;2023-07-02T02:42:38;25.63;;;13.15;;
65581;SDS011;52231;40.090;18.348;2023-07-02T02:45:07;25.02;;;12.98;;
65581;SDS011;52231;40.090;18.348;2023-07-02T02:47:37;22.63;;;12.75;;
65581;SDS011;52231;40.090;18.348;2023-07-02T02:50:06;26.63;;;13.98;;
65581;SDS011;52231;40.090;18.348;2023-07-02T02:52:34;24.60;;;12.85;;
65581;SDS011;52231;40.090;18.348;2023-07-02T02:57:33;24.45;;;12.57;;
65581;SDS011;52231;40.090;18.348;2023-07-02T03:00:01;25.00;;;13.13;;
65581;SDS011;52231;40.090;18.348;2023-07-02T03:02:30;22.30;;;12.40;;
65581;SDS011;52231;40.090;18.348;2023-07-02T03:04:59;19.55;;;11.88;;
65581;SDS011;52231;40.090;18.348;2023-07-02T03:07:29;22.08;;;12.80;;
65581;SDS011;52231;40.090;18.348;2023-07-02T03:09:58;24.05;;;11.32;;
65581;SDS011;52231;40.090;18.348;2023-07-02T03:12:27;19.80;;;10.63;;
65581;SDS011;52231;40.090;18.348;2023-07-02T03:14:55;20.33;;;9.95;;
65581;SDS011;52231;40.090;18.348;2023-07-02T03:17:24;20.15;;;10.05;;
65581;SDS011;52231;40.090;18.348;2023-07-02T03:19:53;17.60;;;10.13;;
65581;SDS011;52231;40.090;18.348;2023-07-02T03:24:49;20.40;;;9.20;;
65581;SDS011;52231;40.090;18.348;2023-07-02T03:29:46;16.90;;;8.80;;
65581;SDS011;52231;40.090;18.348;2023-07-02T03:32:14;17.13;;;9.10;;
65581;SDS011;52231;40.090;18.348;2023-07-02T03:34:42;21.45;;;9.15;;
65581;SDS011;52231;40.090;18.348;2023-07-02T03:37:10;17.67;;;8.75;;
65581;SDS011;52231;40.090;18.348;2023-07-02T03:39:38;16.85;;;8.82;;
65581;SDS011;52231;40.090;18.348;2023-07-02T03:42:06;23.95;;;8.52;;
65581;SDS011;52231;40.090;18.348;2023-07-02T03:44:34;18.88;;;8.13;;
65581;SDS011;52231;40.090;18.348;2023-07-02T03:47:03;20.20;;;7.57;;
65581;SDS011;52231;40.090;18.348;2023-07-02T03:49:31;17.98;;;8.13;;
65581;SDS011;52231;40.090;18.348;2023-07-02T03:52:00;17.33;;;7.65;;
65581;SDS011;52231;40.090;18.348;2023-07-02T03:54:28;20.50;;;8.45;;
65581;SDS011;52231;40.090;18.348;2023-07-02T03:56:56;17.40;;;8.38;;
65581;SDS011;52231;40.090;18.348;2023-07-02T04:01:52;21.15;;;8.80;;
65581;SDS011;52231;40.090;18.348;2023-07-02T04:04:21;16.45;;;8.32;;
65581;SDS011;52231;40.090;18.348;2023-07-02T04:09:18;16.30;;;7.85;;
65581;SDS011;52231;40.090;18.348;2023-07-02T04:11:46;17.00;;;7.82;;
65581;SDS011;52231;40.090;18.348;2023-07-02T04:14:14;15.98;;;7.93;;
65581;SDS011;52231;40.090;18.348;2023-07-02T04:19:12;19.50;;;7.85;;
65581;SDS011;52231;40.090;18.348;2023-07-02T04:21:40;15.60;;;7.45;;
65581;SDS011;52231;40.090;18.348;2023-07-02T04:24:08;15.40;;;7.22;;
65581;SDS011;52231;40.090;18.348;2023-07-02T04:29:04;18.98;;;6.65;;
65581;SDS011;52231;40.090;18.348;2023-07-02T04:31:33;14.98;;;7.10;;
65581;SDS011;52231;40.090;18.348;2023-07-02T04:34:01;15.30;;;6.95;;
65581;SDS011;52231;40.090;18.348;2023-07-02T04:36:30;12.77;;;6.55;;
65581;SDS011;52231;40.090;18.348;2023-07-02T04:38:58;14.10;;;6.40;;
65581;SDS011;52231;40.090;18.348;2023-07-02T04:41:26;14.95;;;6.80;;
65581;SDS011;52231;40.090;18.348;2023-07-02T04:43:55;13.95;;;6.93;;
65581;SDS011;52231;40.090;18.348;2023-07-02T04:46:23;13.07;;;6.22;;
65581;SDS011;52231;40.090;18.348;2023-07-02T04:48:52;14.13;;;6.28;;
65581;SDS011;52231;40.090;18.348;2023-07-02T04:51:21;14.52;;;6.43;;
65581;SDS011;52231;40.090;18.348;2023-07-02T04:53:49;13.20;;;5.50;;
65581;SDS011;52231;40.090;18.348;2023-07-02T04:56:17;14.50;;;5.65;;
65581;SDS011;52231;40.090;18.348;2023-07-02T04:58:46;14.15;;;5.88;;
65581;SDS011;52231;40.090;18.348;2023-07-02T05:01:14;14.18;;;6.03;;
65581;SDS011;52231;40.090;18.348;2023-07-02T05:03:42;13.82;;;5.78;;
65581;SDS011;52231;40.090;18.348;2023-07-02T05:06:11;11.63;;;5.43;;
65581;SDS011;52231;40.090;18.348;2023-07-02T05:08:40;13.10;;;5.10;;
65581;SDS011;52231;40.090;18.348;2023-07-02T05:11:09;16.48;;;5.22;;
65581;SDS011;52231;40.090;18.348;2023-07-02T05:13:37;13.85;;;5.70;;
65581;SDS011;52231;40.090;18.348;2023-07-02T05:16:05;13.43;;;5.22;;
65581;SDS011;52231;40.090;18.348;2023-07-02T05:18:34;13.35;;;5.25;;
65581;SDS011;52231;40.090;18.348;2023-07-02T05:21:02;13.32;;;5.35;;
65581;SDS011;52231;40.090;18.348;2023-07-02T05:23:30;15.73;;;5.32;;
65581;SDS011;52231;40.090;18.348;2023-07-02T05:25:58;18.10;;;5.43;;
65581;SDS011;52231;40.090;18.348;2023-07-02T05:28:26;14.13;;;5.10;;
65581;SDS011;52231;40.090;18.348;2023-07-02T05:33:22;14.15;;;5.10;;
65581;SDS011;52231;40.090;18.348;2023-07-02T05:35:51;14.85;;;5.00;;
65581;SDS011;52231;40.090;18.348;2023-07-02T05:38:19;13.65;;;4.82;;
65581;SDS011;52231;40.090;18.348;2023-07-02T05:40:47;13.88;;;4.80;;
65581;SDS011;52231;40.090;18.348;2023-07-02T05:43:16;14.52;;;4.80;;
65581;SDS011;52231;40.090;18.348;2023-07-02T05:45:44;13.40;;;5.13;;
65581;SDS011;52231;40.090;18.348;2023-07-02T05:48:16;11.30;;;4.75;;
65581;SDS011;52231;40.090;18.348;2023-07-02T05:50:44;12.95;;;5.07;;
65581;SDS011;52231;40.090;18.348;2023-07-02T05:53:13;14.25;;;4.72;;
65581;SDS011;52231;40.090;18.348;2023-07-02T05:55:41;14.88;;;5.22;;
65581;SDS011;52231;40.090;18.348;2023-07-02T05:58:10;16.50;;;4.88;;
65581;SDS011;52231;40.090;18.348;2023-07-02T06:00:38;16.63;;;5.43;;
65581;SDS011;52231;40.090;18.348;2023-07-02T06:03:08;14.35;;;4.50;;
65581;SDS011;52231;40.090;18.348;2023-07-02T06:05:36;13.30;;;4.75;;
65581;SDS011;52231;40.090;18.348;2023-07-02T06:08:05;15.43;;;5.43;;
65581;SDS011;52231;40.090;18.348;2023-07-02T06:10:33;13.05;;;4.82;;
65581;SDS011;52231;40.090;18.348;2023-07-02T06:13:02;15.70;;;4.75;;
65581;SDS011;52231;40.090;18.348;2023-07-02T06:15:30;14.40;;;5.20;;
65581;SDS011;52231;40.090;18.348;2023-07-02T06:17:58;12.32;;;4.90;;
65581;SDS011;52231;40.090;18.348;2023-07-02T06:20:26;15.73;;;5.30;;
65581;SDS011;52231;40.090;18.348;2023-07-02T06:22:55;13.35;;;4.72;;
65581;SDS011;52231;40.090;18.348;2023-07-02T06:25:23;13.95;;;5.45;;
65581;SDS011;52231;40.090;18.348;2023-07-02T06:27:51;13.02;;;4.70;;
65581;SDS011;52231;40.090;18.348;2023-07-02T06:30:22;13.98;;;4.63;;
65581;SDS011;52231;40.090;18.348;2023-07-02T06:32:50;11.35;;;4.68;;
65581;SDS011;52231;40.090;18.348;2023-07-02T06:35:19;13.15;;;4.68;;
65581;SDS011;52231;40.090;18.348;2023-07-02T06:37:47;11.68;;;4.63;;
65581;SDS011;52231;40.090;18.348;2023-07-02T06:40:16;16.13;;;5.18;;
65581;SDS011;52231;40.090;18.348;2023-07-02T06:42:44;14.32;;;4.75;;
65581;SDS011;52231;40.090;18.348;2023-07-02T06:45:12;14.00;;;4.43;;
65581;SDS011;52231;40.090;18.348;2023-07-02T06:47:40;14.65;;;4.53;;
65581;SDS011;52231;40.090;18.348;2023-07-02T06:50:08;15.68;;;5.53;;
65581;SDS011;52231;40.090;18.348;2023-07-02T06:52:37;15.57;;;5.57;;
65581;SDS011;52231;40.090;18.348;2023-07-02T06:55:05;13.20;;;5.03;;
65581;SDS011;52231;40.090;18.348;2023-07-02T06:57:34;13.27;;;4.75;;
65581;SDS011;52231;40.090;18.348;2023-07-02T07:00:02;14.95;;;5.40;;
65581;SDS011;52231;40.090;18.348;2023-07-02T07:02:31;16.20;;;5.00;;
65581;SDS011;52231;40.090;18.348;2023-07-02T07:04:59;13.80;;;5.03;;
65581;SDS011;52231;40.090;18.348;2023-07-02T07:07:27;15.32;;;5.25;;
65581;SDS011;52231;40.090;18.348;2023-07-02T07:09:55;15.32;;;5.75;;
65581;SDS011;52231;40.090;18.348;2023-07-02T07:12:24;14.90;;;5.32;;
65581;SDS011;52231;40.090;18.348;2023-07-02T07:14:52;13.52;;;5.13;;
65581;SDS011;52231;40.090;18.348;2023-07-02T07:17:20;15.02;;;4.95;;
65581;SDS011;52231;40.090;18.348;2023-07-02T07:19:48;14.32;;;4.93;;
65581;SDS011;52231;40.090;18.348;2023-07-02T07:22:17;13.10;;;4.93;;
65581;SDS011;52231;40.090;18.348;2023-07-02T07:24:45;12.18;;;4.90;;
65581;SDS011;52231;40.090;18.348;2023-07-02T07:27:13;12.32;;;4.72;;
65581;SDS011;52231;40.090;18.348;2023-07-02T07:29:42;13.15;;;4.97;;
65581;SDS011;52231;40.090;18.348;2023-07-02T07:32:10;14.20;;;4.60;;
65581;SDS011;52231;40.090;18.348;2023-07-02T07:34:42;14.52;;;4.90;;
65581;SDS011;52231;40.090;18.348;2023-07-02T07:37:10;12.70;;;4.70;;
65581;SDS011;52231;40.090;18.348;2023-07-02T07:39:38;13.57;;;5.10;;
65581;SDS011;52231;40.090;18.348;2023-07-02T07:42:07;13.15;;;4.45;;
65581;SDS011;52231;40.090;18.348;2023-07-02T07:44:35;13.40;;;4.72;;
65581;SDS011;52231;40.090;18.348;2023-07-02T07:47:03;13.50;;;4.90;;
65581;SDS011;52231;40.090;18.348;2023-07-02T07:49:32;15.88;;;5.10;;
65581;SDS011;52231;40.090;18.348;2023-07-02T07:52:00;11.95;;;4.97;;
65581;SDS011;52231;40.090;18.348;2023-07-02T07:54:29;11.85;;;4.57;;
65581;SDS011;52231;40.090;18.348;2023-07-02T07:56:57;14.88;;;4.85;;
65581;SDS011;52231;40.090;18.348;2023-07-02T07:59:25;17.90;;;4.93;;
65581;SDS011;52231;40.090;18.348;2023-07-02T08:01:53;13.23;;;4.95;;
65581;SDS011;52231;40.090;18.348;2023-07-02T08:04:22;18.75;;;5.20;;
65581;SDS011;52231;40.090;18.348;2023-07-02T08:06:50;11.85;;;4.55;;
65581;SDS011;52231;40.090;18.348;2023-07-02T08:09:18;14.07;;;4.60;;
65581;SDS011;52231;40.090;18.348;2023-07-02T08:11:46;14.20;;;5.00;;
65581;SDS011;52231;40.090;18.348;2023-07-02T08:14:14;13.82;;;5.32;;
65581;SDS011;52231;40.090;18.348;2023-07-02T08:16:46;13.88;;;4.85;;
65581;SDS011;52231;40.090;18.348;2023-07-02T08:19:14;11.75;;;5.13;;
65581;SDS011;52231;40.090;18.348;2023-07-02T08:21:42;14.23;;;5.35;;
65581;SDS011;52231;40.090;18.348;2023-07-02T08:24:10;14.23;;;5.35;;
65581;SDS011;52231;40.090;18.348;2023-07-02T08:26:40;13.13;;;5.20;;
65581;SDS011;52231;40.090;18.348;2023-07-02T08:29:08;12.45;;;4.97;;
65581;SDS011;52231;40.090;18.348;2023-07-02T08:31:36;16.05;;;5.35;;
65581;SDS011;52231;40.090;18.348;2023-07-02T08:34:05;15.05;;;5.47;;
65581;SDS011;52231;40.090;18.348;2023-07-02T08:36:33;12.27;;;5.25;;
65581;SDS011;52231;40.090;18.348;2023-07-02T08:39:01;14.85;;;5.05;;
65581;SDS011;52231;40.090;18.348;2023-07-02T08:41:41;14.15;;;5.40;;
65581;SDS011;52231;40.090;18.348;2023-07-02T08:44:11;12.55;;;5.13;;
65581;SDS011;52231;40.090;18.348;2023-07-02T08:46:41;13.95;;;5.93;;
65581;SDS011;52231;40.090;18.348;2023-07-02T08:49:10;14.02;;;5.43;;
65581;SDS011;52231;40.090;18.348;2023-07-02T08:51:39;12.65;;;5.32;;
65581;SDS011;52231;40.090;18.348;2023-07-02T08:54:07;12.52;;;5.30;;
65581;SDS011;52231;40.090;18.348;2023-07-02T08:56:35;13.73;;;5.18;;
65581;SDS011;52231;40.090;18.348;2023-07-02T08:59:05;13.93;;;5.68;;
65581;SDS011;52231;40.090;18.348;2023-07-02T09:01:49;13.43;;;5.45;;
65581;SDS011;52231;40.090;18.348;2023-07-02T09:04:22;12.70;;;4.63;;
65581;SDS011;52231;40.090;18.348;2023-07-02T09:07:05;12.32;;;4.88;;
65581;SDS011;52231;40.090;18.348;2023-07-02T09:09:44;12.50;;;4.95;;
65581;SDS011;52231;40.090;18.348;2023-07-02T09:12:22;14.15;;;5.03;;
65581;SDS011;52231;40.090;18.348;2023-07-02T09:14:58;16.48;;;5.50;;
65581;SDS011;52231;40.090;18.348;2023-07-02T09:17:29;12.82;;;5.47;;
65581;SDS011;52231;40.090;18.348;2023-07-02T09:19:59;11.57;;;5.13;;
65581;SDS011;52231;40.090;18.348;2023-07-02T09:22:30;12.75;;;4.80;;
65581;SDS011;52231;40.090;18.348;2023-07-02T09:24:59;12.27;;;5.18;;
65581;SDS011;52231;40.090;18.348;2023-07-02T09:27:38;11.40;;;5.15;;
65581;SDS011;52231;40.090;18.348;2023-07-02T09:30:09;12.32;;;5.35;;
65581;SDS011;52231;40.090;18.348;2023-07-02T09:32:44;10.70;;;5.00;;
65581;SDS011;52231;40.090;18.348;2023-07-02T09:35:13;13.27;;;5.57;;
65581;SDS011;52231;40.090;18.348;2023-07-02T09:37:42;10.27;;;5.30;;
65581;SDS011;52231;40.090;18.348;2023-07-02T09:40:11;15.38;;;5.55;;
65581;SDS011;52231;40.090;18.348;2023-07-02T09:42:40;12.95;;;5.40;;
65581;SDS011;52231;40.090;18.348;2023-07-02T09:45:10;10.95;;;4.93;;
65581;SDS011;52231;40.090;18.348;2023-07-02T09:47:42;11.90;;;5.20;;
65581;SDS011;52231;40.090;18.348;2023-07-02T09:50:15;11.48;;;5.05;;
65581;SDS011;52231;40.090;18.348;2023-07-02T09:52:46;13.30;;;5.05;;
65581;SDS011;52231;40.090;18.348;2023-07-02T09:55:16;12.23;;;5.50;;
65581;SDS011;52231;40.090;18.348;2023-07-02T09:57:45;13.65;;;5.22;;
65581;SDS011;52231;40.090;18.348;2023-07-02T10:00:14;13.30;;;5.28;;
65581;SDS011;52231;40.090;18.348;2023-07-02T10:02:47;13.50;;;5.15;;
65581;SDS011;52231;40.090;18.348;2023-07-02T10:05:25;12.55;;;4.63;;
65581;SDS011;52231;40.090;18.348;2023-07-02T10:07:58;11.23;;;4.88;;
65581;SDS011;52231;40.090;18.348;2023-07-02T10:10:39;10.75;;;4.90;;
65581;SDS011;52231;40.090;18.348;2023-07-02T10:13:07;15.88;;;4.63;;
65581;SDS011;52231;40.090;18.348;2023-07-02T10:15:35;15.43;;;4.90;;
65581;SDS011;52231;40.090;18.348;2023-07-02T10:18:07;11.43;;;5.00;;
65581;SDS011;52231;40.090;18.348;2023-07-02T10:20:36;12.13;;;4.88;;
65581;SDS011;52231;40.090;18.348;2023-07-02T10:23:08;10.88;;;4.85;;
65581;SDS011;52231;40.090;18.348;2023-07-02T10:25:37;12.38;;;4.93;;
65581;SDS011;52231;40.090;18.348;2023-07-02T10:28:16;10.82;;;5.28;;
65581;SDS011;52231;40.090;18.348;2023-07-02T10:30:46;15.02;;;5.05;;
65581;SDS011;52231;40.090;18.348;2023-07-02T10:33:15;10.35;;;4.90;;
65581;SDS011;52231;40.090;18.348;2023-07-02T10:35:46;12.55;;;5.30;;
65581;SDS011;52231;40.090;18.348;2023-07-02T10:38:20;12.02;;;5.47;;
65581;SDS011;52231;40.090;18.348;2023-07-02T10:40:55;13.05;;;5.32;;
65581;SDS011;52231;40.090;18.348;2023-07-02T10:43:25;12.15;;;4.90;;
65581;SDS011;52231;40.090;18.348;2023-07-02T10:45:59;12.63;;;5.40;;
65581;SDS011;52231;40.090;18.348;2023-07-02T10:48:28;10.85;;;5.18;;
65581;SDS011;52231;40.090;18.348;2023-07-02T10:50:57;14.18;;;5.20;;
65581;SDS011;52231;40.090;18.348;2023-07-02T10:53:25;12.15;;;5.32;;
65581;SDS011;52231;40.090;18.348;2023-07-02T10:55:55;12.70;;;5.40;;
65581;SDS011;52231;40.090;18.348;2023-07-02T10:58:24;13.07;;;5.10;;
65581;SDS011;52231;40.090;18.348;2023-07-02T11:00:53;12.07;;;5.32;;
65581;SDS011;52231;40.090;18.348;2023-07-02T11:03:22;11.35;;;5.18;;
65581;SDS011;52231;40.090;18.348;2023-07-02T11:05:52;12.88;;;5.43;;
65581;SDS011;52231;40.090;18.348;2023-07-02T11:08:21;13.10;;;5.40;;
65581;SDS011;52231;40.090;18.348;2023-07-02T11:10:50;13.23;;;5.10;;
65581;SDS011;52231;40.090;18.348;2023-07-02T11:13:30;14.90;;;6.13;;
65581;SDS011;52231;40.090;18.348;2023-07-02T11:15:59;13.52;;;5.75;;
65581;SDS011;52231;40.090;18.348;2023-07-02T11:18:30;13.07;;;5.60;;
65581;SDS011;52231;40.090;18.348;2023-07-02T11:21:08;12.00;;;5.43;;
65581;SDS011;52231;40.090;18.348;2023-07-02T11:23:38;11.63;;;5.45;;
65581;SDS011;52231;40.090;18.348;2023-07-02T11:26:07;14.32;;;5.93;;
65581;SDS011;52231;40.090;18.348;2023-07-02T11:28:36;12.25;;;5.45;;
65581;SDS011;52231;40.090;18.348;2023-07-02T11:31:25;11.68;;;4.90;;
65581;SDS011;52231;40.090;18.348;2023-07-02T11:33:54;9.85;;;4.90;;
65581;SDS011;52231;40.090;18.348;2023-07-02T11:36:23;12.48;;;5.25;;
65581;SDS011;52231;40.090;18.348;2023-07-02T11:38:54;11.93;;;4.88;;
65581;SDS011;52231;40.090;18.348;2023-07-02T11:41:23;12.38;;;5.20;;
65581;SDS011;52231;40.090;18.348;2023-07-02T11:43:51;12.82;;;5.20;;
65581;SDS011;52231;40.090;18.348;2023-07-02T11:46:19;11.45;;;4.93;;
65581;SDS011;52231;40.090;18.348;2023-07-02T11:48:48;13.15;;;4.38;;
65581;SDS011;52231;40.090;18.348;2023-07-02T11:51:16;13.48;;;4.80;;
65581;SDS011;52231;40.090;18.348;2023-07-02T11:53:44;11.50;;;5.47;;
65581;SDS011;52231;40.090;18.348;2023-07-02T11:56:12;10.63;;;4.63;;
65581;SDS011;52231;40.090;18.348;2023-07-02T11:58:41;10.85;;;4.72;;
65581;SDS011;52231;40.090;18.348;2023-07-02T12:01:10;10.82;;;4.82;;
65581;SDS011;52231;40.090;18.348;2023-07-02T12:03:39;9.82;;;4.55;;
65581;SDS011;52231;40.090;18.348;2023-07-02T12:06:07;10.20;;;4.28;;
65581;SDS011;52231;40.090;18.348;2023-07-02T12:08:35;11.07;;;4.70;;
65581;SDS011;52231;40.090;18.348;2023-07-02T12:11:03;11.02;;;4.35;;
65581;SDS011;52231;40.090;18.348;2023-07-02T12:13:31;10.93;;;4.75;;
65581;SDS011;52231;40.090;18.348;2023-07-02T12:16:00;10.98;;;4.35;;
65581;SDS011;52231;40.090;18.348;2023-07-02T12:18:29;11.00;;;4.80;;
65581;SDS011;52231;40.090;18.348;2023-07-02T12:20:57;9.70;;;4.13;;
65581;SDS011;52231;40.090;18.348;2023-07-02T12:23:25;10.23;;;4.55;;
65581;SDS011;52231;40.090;18.348;2023-07-02T12:25:54;10.32;;;4.70;;
65581;SDS011;52231;40.090;18.348;2023-07-02T12:28:22;12.55;;;4.60;;
65581;SDS011;52231;40.090;18.348;2023-07-02T12:30:50;11.88;;;4.55;;
65581;SDS011;52231;40.090;18.348;2023-07-02T12:33:19;11.90;;;4.63;;
65581;SDS011;52231;40.090;18.348;2023-07-02T12:35:48;10.60;;;4.40;;
65581;SDS011;52231;40.090;18.348;2023-07-02T12:38:17;10.65;;;4.32;;
65581;SDS011;52231;40.090;18.348;2023-07-02T12:40:45;11.00;;;4.35;;
65581;SDS011;52231;40.090;18.348;2023-07-02T12:43:14;11.48;;;3.83;;
65581;SDS011;52231;40.090;18.348;2023-07-02T12:45:45;11.13;;;4.53;;
65581;SDS011;52231;40.090;18.348;2023-07-02T12:48:14;9.98;;;3.92;;
65581;SDS011;52231;40.090;18.348;2023-07-02T12:50:52;9.63;;;3.92;;
65581;SDS011;52231;40.090;18.348;2023-07-02T12:53:24;8.27;;;4.05;;
65581;SDS011;52231;40.090;18.348;2023-07-02T12:55:54;10.65;;;4.57;;
65581;SDS011;52231;40.090;18.348;2023-07-02T12:58:22;9.90;;;4.38;;
65581;SDS011;52231;40.090;18.348;2023-07-02T13:00:54;10.85;;;5.00;;
65581;SDS011;52231;40.090;18.348;2023-07-02T13:03:22;10.20;;;4.22;;
65581;SDS011;52231;40.090;18.348;2023-07-02T13:05:52;9.98;;;4.65;;
65581;SDS011;52231;40.090;18.348;2023-07-02T13:08:21;10.00;;;4.40;;
65581;SDS011;52231;40.090;18.348;2023-07-02T13:10:49;10.27;;;4.30;;
65581;SDS011;52231;40.090;18.348;2023-07-02T13:13:17;11.48;;;4.63;;
65581;SDS011;52231;40.090;18.348;2023-07-02T13:15:48;8.60;;;4.00;;
65581;SDS011;52231;40.090;18.348;2023-07-02T13:18:17;11.07;;;4.30;;
65581;SDS011;52231;40.090;18.348;2023-07-02T13:20:46;10.10;;;4.10;;
65581;SDS011;52231;40.090;18.348;2023-07-02T13:23:14;9.25;;;4.15;;
65581;SDS011;52231;40.090;18.348;2023-07-02T13:25:42;12.43;;;4.38;;
65581;SDS011;52231;40.090;18.348;2023-07-02T13:28:14;8.50;;;4.30;;
65581;SDS011;52231;40.090;18.348;2023-07-02T13:30:42;9.13;;;4.22;;
65581;SDS011;52231;40.090;18.348;2023-07-02T13:33:10;10.27;;;4.43;;
65581;SDS011;52231;40.090;18.348;2023-07-02T13:35:38;10.93;;;4.82;;
65581;SDS011;52231;40.090;18.348;2023-07-02T13:38:06;9.48;;;3.80;;
65581;SDS011;52231;40.090;18.348;2023-07-02T13:40:35;8.52;;;3.90;;
65581;SDS011;52231;40.090;18.348;2023-07-02T13:43:03;9.98;;;4.70;;
65581;SDS011;52231;40.090;18.348;2023-07-02T13:45:31;10.68;;;4.68;;
65581;SDS011;52231;40.090;18.348;2023-07-02T13:48:00;10.07;;;4.60;;
65581;SDS011;52231;40.090;18.348;2023-07-02T13:50:28;11.35;;;4.60;;
65581;SDS011;52231;40.090;18.348;2023-07-02T13:52:56;8.00;;;4.00;;
65581;SDS011;52231;40.090;18.348;2023-07-02T13:55:24;9.40;;;4.28;;
65581;SDS011;52231;40.090;18.348;2023-07-02T13:57:55;10.50;;;4.03;;
65581;SDS011;52231;40.090;18.348;2023-07-02T14:00:24;11.45;;;4.78;;
65581;SDS011;52231;40.090;18.348;2023-07-02T14:02:53;10.38;;;4.75;;
65581;SDS011;52231;40.090;18.348;2023-07-02T14:05:21;8.63;;;4.13;;
65581;SDS011;52231;40.090;18.348;2023-07-02T14:07:50;9.18;;;4.03;;
65581;SDS011;52231;40.090;18.348;2023-07-02T14:10:19;11.77;;;4.47;;
65581;SDS011;52231;40.090;18.348;2023-07-02T14:12:47;12.50;;;4.38;;
65581;SDS011;52231;40.090;18.348;2023-07-02T14:15:15;9.63;;;4.40;;
65581;SDS011;52231;40.090;18.348;2023-07-02T14:17:43;11.88;;;4.70;;
65581;SDS011;52231;40.090;18.348;2023-07-02T14:20:12;9.35;;;4.28;;
65581;SDS011;52231;40.090;18.348;2023-07-02T14:22:40;9.07;;;4.65;;
65581;SDS011;52231;40.090;18.348;2023-07-02T14:25:08;9.02;;;4.50;;
65581;SDS011;52231;40.090;18.348;2023-07-02T14:27:37;9.30;;;4.20;;
65581;SDS011;52231;40.090;18.348;2023-07-02T14:30:13;10.98;;;4.80;;
65581;SDS011;52231;40.090;18.348;2023-07-02T14:32:41;11.00;;;4.20;;
65581;SDS011;52231;40.090;18.348;2023-07-02T14:35:11;9.85;;;4.43;;
65581;SDS011;52231;40.090;18.348;2023-07-02T14:37:40;11.52;;;4.20;;
65581;SDS011;52231;40.090;18.348;2023-07-02T14:40:08;9.18;;;4.10;;
65581;SDS011;52231;40.090;18.348;2023-07-02T14:42:37;10.05;;;4.50;;
65581;SDS011;52231;40.090;18.348;2023-07-02T14:45:05;8.90;;;3.72;;
65581;SDS011;52231;40.090;18.348;2023-07-02T14:47:34;9.07;;;4.10;;
65581;SDS011;52231;40.090;18.348;2023-07-02T14:50:02;11.05;;;4.72;;
65581;SDS011;52231;40.090;18.348;2023-07-02T14:52:31;11.02;;;5.43;;
65581;SDS011;52231;40.090;18.348;2023-07-02T14:55:26;10.27;;;4.50;;
65581;SDS011;52231;40.090;18.348;2023-07-02T14:57:54;10.77;;;4.47;;
65581;SDS011;52231;40.090;18.348;2023-07-02T15:00:23;9.88;;;4.10;;
65581;SDS011;52231;40.090;18.348;2023-07-02T15:02:51;9.45;;;4.50;;
65581;SDS011;52231;40.090;18.348;2023-07-02T15:05:20;9.63;;;4.68;;
65581;SDS011;52231;40.090;18.348;2023-07-02T15:07:48;11.32;;;4.45;;
65581;SDS011;52231;40.090;18.348;2023-07-02T15:10:16;9.48;;;4.47;;
65581;SDS011;52231;40.090;18.348;2023-07-02T15:12:48;10.07;;;4.45;;
65581;SDS011;52231;40.090;18.348;2023-07-02T15:15:19;12.75;;;4.70;;
65581;SDS011;52231;40.090;18.348;2023-07-02T15:17:49;11.07;;;4.25;;
65581;SDS011;52231;40.090;18.348;2023-07-02T15:20:17;9.35;;;4.22;;
65581;SDS011;52231;40.090;18.348;2023-07-02T15:22:45;9.38;;;4.50;;
65581;SDS011;52231;40.090;18.348;2023-07-02T15:25:14;12.88;;;4.38;;